createdAt,value
2022-09-03T00:00:16.404Z,52.86
2022-09-03T00:04:26.771Z,52.86
2022-09-03T00:08:50.818Z,53.66
2022-09-03T00:12:57.673Z,53.63
2022-09-03T00:17:11.265Z,54.40
2022-09-03T00:21:25.091Z,54.79
2022-09-03T00:25:39.797Z,56.16
2022-09-03T00:30:00.209Z,56.77
2022-09-03T00:34:09.141Z,56.16
2022-09-03T00:38:10.750Z,56.03
2022-09-03T00:42:53.743Z,55.94
2022-09-03T00:47:02.046Z,55.46
2022-09-03T00:51:18.850Z,56.20
2022-09-03T00:55:48.260Z,56.81
2022-09-03T00:59:56.941Z,56.74
2022-09-03T01:04:08.158Z,57.48
2022-09-03T01:08:33.292Z,57.60
2022-09-03T01:12:52.220Z,59.95
2022-09-03T01:17:09.402Z,60.56
2022-09-03T01:21:36.601Z,60.50
2022-09-03T01:25:58.084Z,61.78
2022-09-03T01:30:10.938Z,63.65
2022-09-03T01:34:26.675Z,63.70
2022-09-03T01:38:47.918Z,64.13
2022-09-03T01:43:20.526Z,64.32
2022-09-03T01:47:32.009Z,64.36
2022-09-03T01:51:33.998Z,63.59
2022-09-03T01:56:13.288Z,63.13
2022-09-03T02:00:22.973Z,63.08
2022-09-03T02:04:26.585Z,63.11
2022-09-03T02:08:28.314Z,63.41
2022-09-03T02:12:33.689Z,63.75
2022-09-03T02:16:35.384Z,63.79
2022-09-03T02:20:37.531Z,63.12
2022-09-03T02:24:39.347Z,63.51
2022-09-03T02:28:41.057Z,64.38
2022-09-03T02:32:42.555Z,64.93
2022-09-03T02:36:46.761Z,66.37
2022-09-03T02:40:48.688Z,67.11
2022-09-03T02:45:23.450Z,66.69
2022-09-03T02:49:24.933Z,65.91
2022-09-03T02:53:28.869Z,65.75
2022-09-03T02:57:30.714Z,66.47
2022-09-03T03:01:32.561Z,67.53
2022-09-03T03:05:46.715Z,67.75
2022-09-03T03:09:48.205Z,67.50
2022-09-03T03:13:49.596Z,67.36
2022-09-03T03:17:51.148Z,67.79
2022-09-03T03:21:52.584Z,67.70
2022-09-03T03:25:54.018Z,68.11
2022-09-03T03:29:55.742Z,68.29
2022-09-03T03:33:59.814Z,68.62
2022-09-03T03:38:01.360Z,69.30
2022-09-03T03:42:03.094Z,68.50
2022-09-03T03:46:05.397Z,68.50
2022-09-03T03:50:07.026Z,68.60
2022-09-03T03:54:08.954Z,68.56
2022-09-03T03:58:10.378Z,68.79
2022-09-03T04:02:13.095Z,70.59
2022-09-03T04:06:18.391Z,70.20
2022-09-03T04:10:19.950Z,71.80
2022-09-03T04:14:22.234Z,73.20
2022-09-03T04:18:24.043Z,74.76
2022-09-03T04:22:25.583Z,75.52
2022-09-03T04:26:32.426Z,76.29
2022-09-03T04:30:33.927Z,77.12
2022-09-03T04:34:35.618Z,78.77
2022-09-03T04:38:39.370Z,78.55
2022-09-03T04:42:40.885Z,78.78
2022-09-03T04:46:42.624Z,79.83
2022-09-03T04:50:44.051Z,79.81
2022-09-03T04:54:45.443Z,80.09
2022-09-03T04:58:50.975Z,80.54
2022-09-03T05:02:52.949Z,81.00
2022-09-03T05:06:54.441Z,81.04
2022-09-03T05:11:00.637Z,81.41
2022-09-03T05:15:02.493Z,81.82
2022-09-03T05:19:08.332Z,82.27
2022-09-03T05:23:10.254Z,82.76
2022-09-03T05:27:11.714Z,83.02
2022-09-03T05:31:18.742Z,83.63
2022-09-03T05:35:25.376Z,82.93
2022-09-03T05:39:27.464Z,82.87
2022-09-03T05:43:29.834Z,83.66
2022-09-03T05:47:31.276Z,83.86
2022-09-03T05:51:34.308Z,84.00
2022-09-03T05:55:36.100Z,84.18
2022-09-03T05:59:37.508Z,84.05
2022-09-03T06:03:40.056Z,84.35
2022-09-03T06:07:42.817Z,84.44
2022-09-03T06:11:46.170Z,84.76
2022-09-03T06:15:47.701Z,84.43
2022-09-03T06:19:50.100Z,84.89
2022-09-03T06:23:56.624Z,85.12
2022-09-03T06:28:02.208Z,84.92
2022-09-03T06:32:05.056Z,84.83
2022-09-03T06:36:10.668Z,84.67
2022-09-03T06:40:20.801Z,85.08
2022-09-03T06:44:23.825Z,84.67
2022-09-03T06:48:31.690Z,83.57
2022-09-03T06:52:34.436Z,83.03
2022-09-03T06:56:40.176Z,81.57
2022-09-03T07:00:43.119Z,80.60
2022-09-03T07:04:44.948Z,79.99
2022-09-03T07:08:51.233Z,79.27
2022-09-03T07:12:55.910Z,78.66
2022-09-03T07:16:57.337Z,78.37
2022-09-03T07:21:05.246Z,78.01
2022-09-03T07:25:07.351Z,77.74
2022-09-03T07:29:08.825Z,76.35
2022-09-03T07:33:10.617Z,74.95
2022-09-03T07:37:12.042Z,74.44
2022-09-03T07:41:21.441Z,73.52
2022-09-03T07:45:35.972Z,73.01
2022-09-03T07:49:40.526Z,72.27
2022-09-03T07:53:42.427Z,72.46
2022-09-03T07:57:46.112Z,72.43
2022-09-03T08:01:54.033Z,72.00
2022-09-03T08:06:01.846Z,72.27
2022-09-03T08:10:09.678Z,72.12
2022-09-03T08:18:40.837Z,71.26
2022-09-03T08:22:51.467Z,69.51
2022-09-03T08:26:55.921Z,68.31
2022-09-03T08:31:00.448Z,68.31
2022-09-03T08:35:02.114Z,68.09
2022-09-03T08:39:09.543Z,67.62
2022-09-03T08:43:21.927Z,67.82
2022-09-03T08:47:41.991Z,68.33
2022-09-03T08:51:51.568Z,68.34
2022-09-03T08:56:02.878Z,67.60
2022-09-03T09:00:06.561Z,66.13
2022-09-03T09:04:54.009Z,65.02
2022-09-03T09:09:16.878Z,64.62
2022-09-03T09:13:48.847Z,65.17
2022-09-03T09:18:12.269Z,65.65
2022-09-03T09:22:31.146Z,65.20
2022-09-03T09:26:33.947Z,64.92
2022-09-03T09:30:36.007Z,64.96
2022-09-03T09:34:41.212Z,64.86
2022-09-03T09:38:43.836Z,63.38
2022-09-03T09:42:45.393Z,61.90
2022-09-03T09:46:50.258Z,59.92
2022-09-03T09:51:11.714Z,60.20
2022-09-03T09:55:19.433Z,60.03
2022-09-03T09:59:21.134Z,60.17
2022-09-03T10:03:22.518Z,59.72
2022-09-03T10:07:32.901Z,59.33
2022-09-03T10:11:39.785Z,58.05
2022-09-03T10:16:00.240Z,57.21
2022-09-03T10:20:31.328Z,57.46
2022-09-03T10:24:48.690Z,57.12
2022-09-03T10:28:56.075Z,57.25
2022-09-03T10:33:15.649Z,57.33
2022-09-03T10:37:25.933Z,56.58
2022-09-03T10:41:47.511Z,54.96
2022-09-03T10:45:58.748Z,54.45
2022-09-03T10:50:16.209Z,54.02
2022-09-03T10:54:17.840Z,54.37
2022-09-03T10:58:38.081Z,55.18
2022-09-03T11:03:28.597Z,52.64
2022-09-03T11:07:50.518Z,51.97
2022-09-03T11:11:55.662Z,50.65
2022-09-03T11:16:20.405Z,50.83
2022-09-03T11:20:25.417Z,51.65
2022-09-03T11:24:33.085Z,52.34
2022-09-03T11:28:59.871Z,53.33
2022-09-03T11:33:09.474Z,53.72
2022-09-03T11:37:22.040Z,54.20
2022-09-03T11:41:36.095Z,54.24
2022-09-03T11:45:39.423Z,52.86
2022-09-03T11:49:47.470Z,52.01
2022-09-03T11:53:59.402Z,52.11
2022-09-03T11:58:25.224Z,52.85
2022-09-03T12:02:30.891Z,54.18
2022-09-03T12:06:43.243Z,55.14
2022-09-03T12:10:59.319Z,55.54
2022-09-03T12:15:19.550Z,54.51
2022-09-03T12:19:32.592Z,54.73
2022-09-03T12:23:45.963Z,55.51
2022-09-03T12:27:49.619Z,56.17
2022-09-03T12:31:52.542Z,56.99
2022-09-03T12:36:02.233Z,57.88
2022-09-03T12:40:07.409Z,58.53
2022-09-03T12:44:12.471Z,59.47
2022-09-03T12:48:19.715Z,59.88
2022-09-03T12:52:32.941Z,59.69
2022-09-03T12:56:35.364Z,60.57
2022-09-03T13:00:43.385Z,59.89
2022-09-03T13:04:46.241Z,61.87
2022-09-03T13:08:51.512Z,65.66
2022-09-03T13:12:59.762Z,68.39
2022-09-03T13:17:35.705Z,71.26
2022-09-03T13:22:14.881Z,73.45
2022-09-03T13:26:42.800Z,73.84
2022-09-03T13:31:10.826Z,75.47
2022-09-03T13:35:23.532Z,76.91
2022-09-03T13:39:52.558Z,77.34
2022-09-03T13:44:03.315Z,78.99
2022-09-03T13:48:28.684Z,79.08
2022-09-03T13:52:57.571Z,79.05
2022-09-03T13:57:17.208Z,78.90
2022-09-03T14:01:26.076Z,78.26
2022-09-03T14:05:50.890Z,77.45
2022-09-03T14:10:23.912Z,76.35
2022-09-03T14:14:31.461Z,75.02
2022-09-03T14:18:51.685Z,74.46
2022-09-03T14:23:07.498Z,74.72
2022-09-03T14:27:09.335Z,73.82
2022-09-03T14:31:19.320Z,71.92
2022-09-03T14:35:29.519Z,72.15
2022-09-03T14:39:53.203Z,68.24
2022-09-03T14:44:20.756Z,69.91
2022-09-03T14:48:50.169Z,69.85
2022-09-03T14:53:13.080Z,69.88
2022-09-03T14:57:31.697Z,70.36
2022-09-03T15:01:38.934Z,69.17
2022-09-03T15:06:05.905Z,68.47
2022-09-03T15:10:28.826Z,68.24
2022-09-03T15:14:40.108Z,68.72
2022-09-03T15:19:02.978Z,65.48
2022-09-03T15:23:24.287Z,65.67
2022-09-03T15:27:40.910Z,65.19
2022-09-03T15:32:06.886Z,65.41
2022-09-03T15:36:13.450Z,67.36
2022-09-03T15:40:46.178Z,67.47
2022-09-03T15:44:52.536Z,66.88
2022-09-03T15:49:02.716Z,65.73
2022-09-03T15:53:04.850Z,66.83
2022-09-03T15:57:26.677Z,67.67
2022-09-03T16:01:59.860Z,68.84
2022-09-03T16:06:07.093Z,69.09
2022-09-03T16:10:25.975Z,68.81
2022-09-03T16:14:35.682Z,68.07
2022-09-03T16:18:46.720Z,65.13
2022-09-03T16:23:05.639Z,61.84
2022-09-03T16:27:17.779Z,60.66
2022-09-03T16:31:33.030Z,60.43
2022-09-03T16:35:46.432Z,62.03
2022-09-03T16:40:06.722Z,63.48
2022-09-03T16:44:45.973Z,65.33
2022-09-03T16:49:11.731Z,66.75
2022-09-03T16:53:32.325Z,67.49
2022-09-03T16:57:45.850Z,68.07
2022-09-03T17:02:40.614Z,69.03
2022-09-03T17:07:08.723Z,70.12
2022-09-03T17:11:40.459Z,70.83
2022-09-03T17:15:48.136Z,71.75
2022-09-03T17:20:11.533Z,72.92
2022-09-03T17:24:36.079Z,73.60
2022-09-03T17:28:49.555Z,74.52
2022-09-03T17:33:06.633Z,74.62
2022-09-03T17:37:24.377Z,75.42
2022-09-03T17:41:41.129Z,75.21
2022-09-03T17:45:48.274Z,75.62
2022-09-03T17:49:58.245Z,76.37
2022-09-03T17:54:18.665Z,76.36
2022-09-03T17:58:32.626Z,76.84
2022-09-03T18:03:06.489Z,77.80
2022-09-03T18:07:29.645Z,78.51
2022-09-03T18:11:39.063Z,78.77
2022-09-03T18:15:52.632Z,78.97
2022-09-03T18:20:20.422Z,78.98
2022-09-03T18:25:02.429Z,79.32
2022-09-03T18:29:54.426Z,79.24
2022-09-03T18:34:14.636Z,79.89
2022-09-03T18:38:51.495Z,80.54
2022-09-03T18:43:35.945Z,80.46
2022-09-03T18:48:20.264Z,80.11
2022-09-03T18:52:56.068Z,79.42
2022-09-03T18:57:17.197Z,80.06
2022-09-03T19:01:56.695Z,80.33
2022-09-03T19:06:37.069Z,81.10
2022-09-03T19:11:03.396Z,81.59
2022-09-03T19:15:38.980Z,81.80
2022-09-03T19:20:31.233Z,81.72
2022-09-03T19:24:51.713Z,82.04
2022-09-03T19:29:21.412Z,81.95
2022-09-03T19:33:56.801Z,82.36
2022-09-03T19:38:29.657Z,82.72
2022-09-03T19:43:19.279Z,82.24
2022-09-03T19:48:03.063Z,82.73
2022-09-03T19:52:44.829Z,82.90
2022-09-03T19:57:06.798Z,83.10
2022-09-03T20:01:28.468Z,82.70
2022-09-03T20:05:48.914Z,83.43
2022-09-03T20:10:12.190Z,83.68
2022-09-03T20:14:16.029Z,84.43
2022-09-03T20:18:30.336Z,85.02
2022-09-03T20:22:36.664Z,85.35
2022-09-03T20:27:04.121Z,85.08
2022-09-03T20:31:40.089Z,85.20
2022-09-03T20:35:56.650Z,85.12
2022-09-03T20:40:08.138Z,85.19
2022-09-03T20:44:37.899Z,85.14
2022-09-03T20:48:50.542Z,85.60
2022-09-03T20:53:02.064Z,85.21
2022-09-03T20:57:18.285Z,85.66
2022-09-03T21:01:57.263Z,85.92
2022-09-03T21:06:15.855Z,86.00
2022-09-03T21:10:42.177Z,86.04
2022-09-03T21:14:51.576Z,85.87
2022-09-03T21:19:03.685Z,86.05
2022-09-03T21:23:21.244Z,86.70
2022-09-03T21:27:49.988Z,87.13
2022-09-03T21:32:14.477Z,87.04
2022-09-03T21:36:36.706Z,86.89
2022-09-03T21:40:46.772Z,86.95
2022-09-03T21:45:08.108Z,86.80
2022-09-03T21:49:15.384Z,87.15
2022-09-03T21:53:47.293Z,86.95
2022-09-03T21:58:00.234Z,87.48
2022-09-03T22:02:16.683Z,87.63
2022-09-03T22:06:26.336Z,87.64
2022-09-03T22:10:39.351Z,87.65
2022-09-03T22:14:51.426Z,87.40
2022-09-03T22:18:54.244Z,87.72
2022-09-03T22:23:03.745Z,87.79
2022-09-03T22:27:38.708Z,87.91
2022-09-03T22:32:25.159Z,88.63
2022-09-03T22:36:37.389Z,88.25
2022-09-03T22:40:57.938Z,88.36
2022-09-03T22:44:59.429Z,88.71
2022-09-03T22:49:13.177Z,89.16
2022-09-03T22:53:51.582Z,89.18
2022-09-03T22:58:02.589Z,89.00
2022-09-03T23:02:20.829Z,89.51
2022-09-03T23:06:41.482Z,89.32
2022-09-03T23:10:54.024Z,89.49
2022-09-03T23:15:00.851Z,89.92
2022-09-03T23:23:29.861Z,89.91
2022-09-03T23:28:02.993Z,89.96
2022-09-03T23:36:57.923Z,89.99
2022-09-03T23:41:04.032Z,89.37
2022-09-03T23:45:33.584Z,88.63
2022-09-03T23:49:43.738Z,88.37
2022-09-03T23:54:00.908Z,88.92
2022-09-03T23:58:12.973Z,89.58
